Time,TemperatureF,DewpointF,PressureIn,WindDirection,WindDirectionDegrees,WindSpeedMPH,WindSpeedGustMPH,Humidity,HourlyPrecipIn,Conditions,Clouds,dailyrainin,SoftwareType,DateUTC
2013-04-16 00:08:00,37.1,30.0,29.98,WSW,258,2.0,-999.0,74,-99.99,,,0.00,weatherlink.com 1.10,2013-04-16 05:08:00,
2013-04-16 00:23:00,37.0,30.0,29.99,West,265,2.0,-999.0,75,-99.99,,,0.00,weatherlink.com 1.10,2013-04-16 05:23:00,
2013-04-16 00:38:00,36.9,30.0,29.99,West,261,2.0,-999.0,75,-99.99,,,0.00,weatherlink.com 1.10,2013-04-16 05:38:00,
2013-04-16 00:53:00,36.6,29.0,29.99,WNW,282,5.0,-999.0,75,-99.99,,,0.00,weatherlink.com 1.10,2013-04-16 05:53:00,
2013-04-16 01:08:00,36.2,29.0,30.00,SW,229,2.0,-999.0,76,-99.99,,,0.00,weatherlink.com 1.10,2013-04-16 06:08:00,
2013-04-16 01:23:00,35.9,29.0,30.00,West,273,4.0,-999.0,76,-99.99,,,0.00,weatherlink.com 1.10,2013-04-16 06:23:00,
2013-04-16 01:38:00,35.2,29.0,29.98,West,281,4.0,-999.0,77,-99.99,,,0.00,weatherlink.com 1.10,2013-04-16 06:38:00,
2013-04-16 01:53:00,35.0,28.0,29.99,WNW,284,3.0,-999.0,77,-99.99,,,0.00,weatherlink.com 1.10,2013-04-16 06:53:00,
2013-04-16 02:08:00,34.6,28.0,30.00,West,275,4.0,-999.0,77,-99.99,,,0.00,weatherlink.com 1.10,2013-04-16 07:08:00,
2013-04-16 02:23:00,34.3,28.0,29.99,West,271,2.0,-999.0,77,-99.99,,,0.00,weatherlink.com 1.10,2013-04-16 07:23:00,
2013-04-16 02:38:00,34.0,28.0,29.99,NW,310,3.0,-999.0,77,-99.99,,,0.00,weatherlink.com 1.10,2013-04-16 07:38:00,
2013-04-16 02:54:00,33.8,28.0,30.00,West,278,4.0,-999.0,78,-99.99,,,0.00,weatherlink.com 1.10,2013-04-16 07:54:00,
2013-04-16 03:09:00,33.3,27.0,30.02,WSW,257,4.0,-999.0,79,-99.99,,,0.00,weatherlink.com 1.10,2013-04-16 08:09:00,
2013-04-16 03:24:00,33.0,27.0,30.01,WSW,246,4.0,-999.0,80,-99.99,,,0.00,weatherlink.com 1.10,2013-04-16 08:24:00,
2013-04-16 03:39:00,33.1,27.0,30.02,WSW,256,6.0,-999.0,79,-99.99,,,0.00,weatherlink.com 1.10,2013-04-16 08:39:00,
2013-04-16 03:54:00,32.6,27.0,30.02,West,261,3.0,-999.0,80,-99.99,,,0.00,weatherlink.com 1.10,2013-04-16 08:54:00,
2013-04-16 04:09:00,31.9,27.0,30.02,WSW,247,3.0,-999.0,82,-99.99,,,0.00,weatherlink.com 1.10,2013-04-16 09:09:00,
2013-04-16 04:24:00,31.6,27.0,30.05,WSW,250,4.0,-999.0,83,-99.99,,,0.00,weatherlink.com 1.10,2013-04-16 09:24:00,
2013-04-16 04:39:00,31.4,27.0,30.05,West,281,3.0,-999.0,84,-99.99,,,0.00,weatherlink.com 1.10,2013-04-16 09:39:00,
2013-04-16 04:54:00,31.2,27.0,30.06,West,275,4.0,-999.0,84,-99.99,,,0.00,weatherlink.com 1.10,2013-04-16 09:54:00,
2013-04-16 05:09:00,31.8,28.0,30.05,West,275,3.0,-999.0,84,-99.99,,,0.00,weatherlink.com 1.10,2013-04-16 10:09:00,
2013-04-16 05:24:00,32.1,28.0,30.06,WSW,252,5.0,-999.0,84,-99.99,,,0.00,weatherlink.com 1.10,2013-04-16 10:24:00,
2013-04-16 05:39:00,32.5,28.0,30.06,West,265,2.0,-999.0,84,-99.99,,,0.00,weatherlink.com 1.10,2013-04-16 10:39:00,
2013-04-16 05:54:00,32.6,28.0,30.06,WSW,256,0.0,-999.0,84,-99.99,,,0.00,weatherlink.com 1.10,2013-04-16 10:54:00,
2013-04-16 06:09:00,32.6,28.0,30.08,WNW,282,1.0,-999.0,84,-99.99,,,0.00,weatherlink.com 1.10,2013-04-16 11:09:00,
2013-04-16 06:24:00,32.8,29.0,30.07,WSW,253,4.0,-999.0,84,-99.99,,,0.00,weatherlink.com 1.10,2013-04-16 11:24:00,
2013-04-16 06:39:00,33.0,28.0,30.07,West,271,1.0,-999.0,83,-99.99,,,0.00,weatherlink.com 1.10,2013-04-16 11:39:00,
2013-04-16 06:54:00,33.3,28.0,30.09,West,281,4.0,-999.0,82,-99.99,,,0.00,weatherlink.com 1.10,2013-04-16 11:54:00,
2013-04-16 07:09:00,33.6,28.0,30.11,West,263,4.0,-999.0,81,-99.99,,,0.00,weatherlink.com 1.10,2013-04-16 12:09:00,
2013-04-16 07:24:00,34.1,29.0,30.13,WSW,249,8.0,-999.0,81,-99.99,,,0.00,weatherlink.com 1.10,2013-04-16 12:24:00,
2013-04-16 07:39:00,34.4,29.0,30.13,West,265,4.0,-999.0,79,-99.99,,,0.00,weatherlink.com 1.10,2013-04-16 12:39:00,
2013-04-16 07:54:00,34.6,28.0,30.14,West,268,4.0,-999.0,78,-99.99,,,0.00,weatherlink.com 1.10,2013-04-16 12:54:00,
2013-04-16 08:09:00,34.9,28.0,30.15,West,277,0.0,-999.0,77,-99.99,,,0.00,weatherlink.com 1.10,2013-04-16 13:09:00,
2013-04-16 08:24:00,35.2,29.0,30.15,West,279,4.0,-999.0,77,-99.99,,,0.00,weatherlink.com 1.10,2013-04-16 13:24:00,
2013-04-16 08:39:00,35.3,29.0,30.16,WNW,286,3.0,-999.0,77,-99.99,,,0.00,weatherlink.com 1.10,2013-04-16 13:39:00,
2013-04-16 08:54:00,35.5,29.0,30.16,WSW,250,2.0,-999.0,77,-99.99,,,0.00,weatherlink.com 1.10,2013-04-16 13:54:00,
2013-04-16 09:09:00,35.7,29.0,30.16,West,267,4.0,-999.0,77,-99.99,,,0.00,weatherlink.com 1.10,2013-04-16 14:09:00,
2013-04-16 09:24:00,35.9,29.0,30.17,West,265,1.0,-999.0,76,-99.99,,,0.00,weatherlink.com 1.10,2013-04-16 14:24:00,
2013-04-16 09:39:00,36.2,30.0,30.17,North,5,6.0,-999.0,77,-99.99,,,0.00,weatherlink.com 1.10,2013-04-16 14:39:00,
2013-04-16 09:54:00,36.7,29.0,30.18,West,260,5.0,-999.0,75,-99.99,,,0.00,weatherlink.com 1.10,2013-04-16 14:54:00,
2013-04-16 10:09:00,37.1,30.0,30.19,WNW,299,4.0,-999.0,74,-99.99,,,0.00,weatherlink.com 1.10,2013-04-16 15:09:00,
2013-04-16 10:24:00,37.0,29.0,30.19,West,281,3.0,-999.0,73,-99.99,,,0.00,weatherlink.com 1.10,2013-04-16 15:24:00,
2013-04-16 10:39:00,38.3,30.0,30.19,WNW,287,3.0,-999.0,71,-99.99,,,0.00,weatherlink.com 1.10,2013-04-16 15:39:00,
2013-04-16 10:54:00,38.7,30.0,30.20,West,271,1.0,-999.0,71,-99.99,,,0.00,weatherlink.com 1.10,2013-04-16 15:54:00,
2013-04-16 11:09:00,39.1,30.0,30.20,West,274,0.0,-999.0,69,-99.99,,,0.00,weatherlink.com 1.10,2013-04-16 16:09:00,
2013-04-16 11:25:00,40.1,30.0,30.20,WSW,253,4.0,-999.0,68,-99.99,,,0.00,weatherlink.com 1.10,2013-04-16 16:25:00,
2013-04-16 11:40:00,40.4,30.0,30.21,WNW,296,1.0,-999.0,66,-99.99,,,0.00,weatherlink.com 1.10,2013-04-16 16:40:00,
2013-04-16 11:55:00,41.5,30.0,30.21,North,355,5.0,-999.0,64,-99.99,,,0.00,weatherlink.com 1.10,2013-04-16 16:55:00,
2013-04-16 12:10:00,41.4,30.0,30.22,WNW,291,8.0,-999.0,63,-99.99,,,0.00,weatherlink.com 1.10,2013-04-16 17:10:00,
2013-04-16 12:25:00,43.5,32.0,30.22,West,275,5.0,-999.0,63,-99.99,,,0.00,weatherlink.com 1.10,2013-04-16 17:25:00,
2013-04-16 12:40:00,44.1,31.0,30.23,West,263,2.0,-999.0,61,-99.99,,,0.00,weatherlink.com 1.10,2013-04-16 17:40:00,
2013-04-16 12:55:00,43.7,30.0,30.23,WSW,243,4.0,-999.0,60,-99.99,,,0.00,weatherlink.com 1.10,2013-04-16 17:55:00,
2013-04-16 13:10:00,43.8,30.0,30.23,WSW,239,0.0,-999.0,59,-99.99,,,0.00,weatherlink.com 1.10,2013-04-16 18:10:00,
2013-04-16 13:25:00,44.7,31.0,30.23,NNE,30,3.0,-999.0,59,-99.99,,,0.00,weatherlink.com 1.10,2013-04-16 18:25:00,
2013-04-16 13:40:00,45.9,31.0,30.23,NNE,22,2.0,-999.0,56,-99.99,,,0.00,weatherlink.com 1.10,2013-04-16 18:40:00,
2013-04-16 13:55:00,46.1,32.0,30.23,NW,315,3.0,-999.0,58,-99.99,,,0.00,weatherlink.com 1.10,2013-04-16 18:55:00,
2013-04-16 14:10:00,47.9,32.0,30.23,NNE,14,4.0,-999.0,55,-99.99,,,0.00,weatherlink.com 1.10,2013-04-16 19:10:00,
2013-04-16 14:25:00,48.5,29.0,30.23,NNW,328,7.0,-999.0,48,-99.99,,,0.00,weatherlink.com 1.10,2013-04-16 19:25:00,
2013-04-16 14:40:00,48.0,30.0,30.23,WSW,254,0.0,-999.0,51,-99.99,,,0.00,weatherlink.com 1.10,2013-04-16 19:40:00,
2013-04-16 14:55:00,48.7,31.0,30.23,NNW,344,4.0,-999.0,50,-99.99,,,0.00,weatherlink.com 1.10,2013-04-16 19:55:00,
2013-04-16 15:10:00,49.9,31.0,30.23,NNW,338,1.0,-999.0,48,-99.99,,,0.00,weatherlink.com 1.10,2013-04-16 20:10:00,
2013-04-16 15:25:00,50.0,30.0,30.23,NNW,346,4.0,-999.0,47,-99.99,,,0.00,weatherlink.com 1.10,2013-04-16 20:25:00,
2013-04-16 15:40:00,50.5,30.0,30.23,NNW,344,3.0,-999.0,46,-99.99,,,0.00,weatherlink.com 1.10,2013-04-16 20:40:00,
2013-04-16 15:55:00,50.5,31.0,30.23,West,271,4.0,-999.0,47,-99.99,,,0.00,weatherlink.com 1.10,2013-04-16 20:55:00,
2013-04-16 16:10:00,51.7,31.0,30.23,WNW,296,2.0,-999.0,45,-99.99,,,0.00,weatherlink.com 1.10,2013-04-16 21:10:00,
2013-04-16 16:25:00,51.8,31.0,30.23,NNW,327,3.0,-999.0,45,-99.99,,,0.00,weatherlink.com 1.10,2013-04-16 21:25:00,
2013-04-16 16:40:00,51.7,30.0,30.23,NW,312,7.0,-999.0,44,-99.99,,,0.00,weatherlink.com 1.10,2013-04-16 21:40:00,
2013-04-16 16:55:00,51.7,30.0,30.23,NE,42,7.0,-999.0,43,-99.99,,,0.00,weatherlink.com 1.10,2013-04-16 21:55:00,
2013-04-16 17:10:00,52.4,30.0,30.24,NNW,327,5.0,-999.0,42,-99.99,,,0.00,weatherlink.com 1.10,2013-04-16 22:10:00,
2013-04-16 17:25:00,51.7,31.0,30.24,NNW,329,5.0,-999.0,45,-99.99,,,0.00,weatherlink.com 1.10,2013-04-16 22:25:00,
2013-04-16 17:40:00,51.0,30.0,30.25,North,349,5.0,-999.0,44,-99.99,,,0.00,weatherlink.com 1.10,2013-04-16 22:40:00,
2013-04-16 17:55:00,51.0,29.0,30.25,North,360,3.0,-999.0,43,-99.99,,,0.00,weatherlink.com 1.10,2013-04-16 22:55:00,
2013-04-16 18:10:00,50.0,30.0,30.25,NNE,28,5.0,-999.0,47,-99.99,,,0.00,weatherlink.com 1.10,2013-04-16 23:10:00,
2013-04-16 18:25:00,49.7,30.0,30.25,NNE,26,3.0,-999.0,47,-99.99,,,0.00,weatherlink.com 1.10,2013-04-16 23:25:00,
2013-04-16 18:40:00,49.1,30.0,30.26,NNW,340,0.0,-999.0,48,-99.99,,,0.00,weatherlink.com 1.10,2013-04-16 23:40:00,
2013-04-16 18:55:00,47.5,31.0,30.26,NNE,31,6.0,-999.0,53,-99.99,,,0.00,weatherlink.com 1.10,2013-04-16 23:55:00,
2013-04-16 19:10:00,46.1,31.0,30.27,NNE,21,4.0,-999.0,55,-99.99,,,0.00,weatherlink.com 1.10,2013-04-17 00:10:00,
2013-04-16 19:25:00,45.0,30.0,30.28,North,355,0.0,-999.0,57,-99.99,,,0.00,weatherlink.com 1.10,2013-04-17 00:25:00,
2013-04-16 19:40:00,43.8,30.0,30.28,ENE,59,0.0,-999.0,59,-99.99,,,0.00,weatherlink.com 1.10,2013-04-17 00:40:00,
2013-04-16 19:56:00,42.5,30.0,30.28,NNE,15,4.0,-999.0,61,-99.99,,,0.00,weatherlink.com 1.10,2013-04-17 00:56:00,
2013-04-16 20:11:00,41.9,30.0,30.28,NNW,337,2.0,-999.0,62,-99.99,,,0.00,weatherlink.com 1.10,2013-04-17 01:11:00,
2013-04-16 20:26:00,41.2,29.0,30.29,NNW,331,0.0,-999.0,63,-99.99,,,0.00,weatherlink.com 1.10,2013-04-17 01:26:00,
2013-04-16 20:41:00,40.6,30.0,30.30,NE,44,0.0,-999.0,65,-99.99,,,0.00,weatherlink.com 1.10,2013-04-17 01:41:00,
2013-04-16 20:56:00,40.0,29.0,30.30,NE,44,0.0,-999.0,66,-99.99,,,0.00,weatherlink.com 1.10,2013-04-17 01:56:00,
2013-04-16 21:11:00,39.5,31.0,30.31,NE,44,0.0,-999.0,72,-99.99,,,0.00,weatherlink.com 1.10,2013-04-17 02:11:00,
2013-04-16 21:26:00,39.1,30.0,30.32,NE,43,0.0,-999.0,69,-99.99,,,0.00,weatherlink.com 1.10,2013-04-17 02:26:00,
2013-04-16 21:41:00,38.7,30.0,30.32,NE,43,0.0,-999.0,70,-99.99,,,0.00,weatherlink.com 1.10,2013-04-17 02:41:00,
2013-04-16 21:56:00,37.9,30.0,30.33,NE,43,0.0,-999.0,72,-99.99,,,0.00,weatherlink.com 1.10,2013-04-17 02:56:00,
2013-04-16 23:11:00,37.0,29.0,30.33,North,5,1.0,-999.0,74,-99.99,,,0.00,weatherlink.com 1.10,2013-04-17 04:11:00,
2013-04-16 23:41:00,36.8,30.0,30.34,North,5,2.0,-999.0,75,-99.99,,,0.00,weatherlink.com 1.10,2013-04-17 04:41:00,
2013-04-16 23:56:00,36.2,30.0,30.35,North,5,0.0,-999.0,77,-99.99,,,0.00,weatherlink.com 1.10,2013-04-17 04:56:00,